Terminal Aerodrome Forecast
Issued by NWS

Home | Current Version | Previous Version | Text Only | Print | Product List | Glossary On
Versions: 1 2 3 4 5 6 7 8 9 10 11 12 13 14 15 16 17 18
815
FTUS46 KSTO 231456 AAA
TAFSCK
TAF AMD
KSCK 231456Z 2315/2412 VRB03KT 2SM BR FEW003
      TEMPO 2315/2317 1/4SM FG VV001
     FM231800 VRB04KT 4SM BR FEW008
     FM232100 31005KT P6SM BKN150
     FM240600 VRB04KT 2SM BR SCT002 BKN250=

USA.gov is the U.S. government's official web portal to all federal, state and local government web resources and services.